Time;durP1;ratioP1;P1;durP2;ratioP2;P2;SDS_P1;SDS_P2;PMS_P1;PMS_P2;Temp;Humidity;BMP_temperature;BMP_pressure;BME280_temperature;BME280_humidity;BME280_pressure;Samples;Min_cycle;Max_cycle;Signal;HPM_P1;HPM_P2
2022/01/30 00:01:22;;;;;;;31.63;6.78;;;7.80;99.90;;;;;;5027250;28;20052;-62
2022/01/30 00:03:48;;;;;;;34.10;7.53;;;7.80;99.90;;;;;;5008601;28;20610;-62
2022/01/30 00:06:13;;;;;;;36.50;7.38;;;7.80;99.90;;;;;;5009815;28;20046;-62
2022/01/30 00:08:39;;;;;;;45.38;8.00;;;7.80;99.90;;;;;;5011633;28;20045;-62
2022/01/30 00:11:13;;;;;;;37.03;9.55;;;7.70;99.90;;;;;;5005341;28;20045;-62
2022/01/30 00:13:38;;;;;;;35.28;7.07;;;7.70;99.90;;;;;;5009661;28;20133;-62
2022/01/30 00:16:07;;;;;;;30.73;6.30;;;7.70;99.90;;;;;;5013770;28;20444;-62
2022/01/30 00:21:10;;;;;;;32.30;7.05;;;7.60;99.90;;;;;;5019840;28;20132;-62
2022/01/30 00:23:42;;;;;;;38.40;6.13;;;7.60;99.90;;;;;;5004577;28;20108;-62
2022/01/30 00:26:09;;;;;;;37.10;7.30;;;7.50;99.90;;;;;;5009216;28;20125;-62
2022/01/30 00:28:34;;;;;;;39.70;7.15;;;7.40;99.90;;;;;;5011224;28;20057;-62
2022/01/30 00:31:00;;;;;;;32.47;7.72;;;7.50;99.90;;;;;;5013435;28;20044;-62
2022/01/30 00:33:26;;;;;;;34.45;8.27;;;7.50;99.90;;;;;;5008569;28;20048;-62
2022/01/30 00:35:52;;;;;;;38.97;7.13;;;7.40;99.90;;;;;;5009400;28;20512;-62
2022/01/30 00:38:22;;;;;;;46.92;7.47;;;7.40;99.90;;;;;;5014314;28;20061;-62
2022/01/30 00:40:50;;;;;;;45.22;8.02;;;7.30;99.90;;;;;;5011948;28;20414;-62
2022/01/30 00:43:17;;;;;;;38.42;7.03;;;7.20;99.90;;;;;;4994054;28;20413;-62
2022/01/30 00:45:42;;;;;;;35.80;7.70;;;7.10;99.90;;;;;;5007293;28;20088;-62
2022/01/30 00:48:08;;;;;;;39.58;7.88;;;7.10;99.90;;;;;;5013681;28;20443;-62
2022/01/30 00:50:35;;;;;;;38.22;8.70;;;7.10;99.90;;;;;;5001905;28;20065;-62
2022/01/30 00:53:00;;;;;;;42.45;7.68;;;7.10;99.90;;;;;;5006405;28;20046;-62
2022/01/30 00:55:28;;;;;;;37.80;6.65;;;7.00;99.90;;;;;;5007796;28;20508;-62
2022/01/30 00:57:54;;;;;;;42.15;6.45;;;7.00;99.90;;;;;;4997626;28;20045;-62
2022/01/30 01:00:20;;;;;;;36.47;7.93;;;7.00;99.90;;;;;;5005398;28;20129;-62
2022/01/30 01:02:46;;;;;;;37.03;8.18;;;7.00;99.90;;;;;;5020383;28;20508;-62
2022/01/30 01:05:12;;;;;;;40.40;6.93;;;6.90;99.90;;;;;;5003068;28;20037;-62
2022/01/30 01:07:42;;;;;;;35.38;6.60;;;7.00;99.90;;;;;;5011519;28;20411;-62
2022/01/30 01:10:34;;;;;;;33.67;7.15;;;6.90;99.90;;;;;;5010887;28;20058;-62
2022/01/30 01:13:16;;;;;;;37.95;6.45;;;6.90;99.90;;;;;;5002725;28;20101;-62
2022/01/30 01:23:51;;;;;;;24.73;6.20;;;7.00;99.90;;;;;;5011773;28;20099;-62
2022/01/30 01:26:18;;;;;;;34.83;7.45;;;7.00;99.90;;;;;;5000386;28;20077;-62
2022/01/30 01:28:44;;;;;;;30.90;6.65;;;7.00;99.90;;;;;;5023048;28;20061;-62
2022/01/30 01:31:10;;;;;;;35.55;7.10;;;7.00;99.90;;;;;;5022657;28;20049;-62
2022/01/30 01:33:50;;;;;;;38.92;8.38;;;7.00;99.90;;;;;;5025858;28;20048;-62
2022/01/30 01:36:16;;;;;;;28.00;6.93;;;7.00;99.90;;;;;;5002855;28;20178;-62
2022/01/30 01:38:42;;;;;;;32.45;7.30;;;7.10;99.90;;;;;;5007044;28;20045;-62
2022/01/30 01:41:08;;;;;;;39.88;7.80;;;7.10;99.90;;;;;;5009699;28;20083;-62
2022/01/30 01:43:35;;;;;;;42.13;8.50;;;7.10;99.90;;;;;;4995671;28;20049;-62
2022/01/30 01:46:01;;;;;;;35.55;7.13;;;7.20;99.90;;;;;;5006477;28;20096;-62
2022/01/30 01:48:32;;;;;;;37.45;7.95;;;7.30;99.90;;;;;;5006980;28;20034;-62
2022/01/30 01:51:07;;;;;;;43.20;8.57;;;7.30;99.90;;;;;;5003033;28;20078;-62
2022/01/30 01:53:33;;;;;;;30.83;6.25;;;7.30;99.90;;;;;;5000998;28;20402;-62
2022/01/30 01:55:59;;;;;;;44.90;8.32;;;7.40;99.90;;;;;;5000220;28;20041;-62
2022/01/30 01:58:26;;;;;;;30.38;7.68;;;7.40;99.90;;;;;;4995793;28;20042;-62
2022/01/30 02:00:52;;;;;;;47.08;8.70;;;7.40;99.90;;;;;;5000434;28;20049;-62
2022/01/30 02:03:19;;;;;;;36.17;7.82;;;7.40;99.90;;;;;;5008624;28;20099;-62
2022/01/30 02:05:54;;;;;;;29.27;6.95;;;7.40;99.90;;;;;;4998298;28;20529;-62
2022/01/30 02:11:01;;;;;;;37.40;7.20;;;7.30;99.90;;;;;;5018268;28;20045;-62
2022/01/30 02:14:00;;;;;;;44.95;9.00;;;7.30;99.90;;;;;;5010132;28;20038;-61
2022/01/30 02:24:59;;;;;;;32.42;5.43;;;7.10;99.90;;;;;;5008483;28;20082;-62
2022/01/30 02:27:31;;;;;;;23.30;4.90;;;7.00;99.90;;;;;;4993062;28;20054;-62
2022/01/30 02:29:57;;;;;;;24.67;4.82;;;6.90;99.90;;;;;;5007935;28;20097;-62
2022/01/30 02:32:23;;;;;;;31.95;6.50;;;6.80;99.90;;;;;;5008268;28;20125;-62
2022/01/30 02:34:49;;;;;;;35.47;6.32;;;6.70;99.90;;;;;;4996025;28;20030;-62
2022/01/30 02:37:16;;;;;;;35.40;8.93;;;6.80;99.90;;;;;;5007594;28;20050;-62
2022/01/30 02:39:42;;;;;;;29.10;6.60;;;6.70;99.90;;;;;;5005086;28;20097;-62
2022/01/30 02:42:10;;;;;;;43.90;8.52;;;6.70;99.90;;;;;;4995349;28;20058;-62
2022/01/30 02:44:42;;;;;;;39.35;7.55;;;6.60;99.90;;;;;;5008549;28;20053;-62
2022/01/30 02:47:21;;;;;;;43.55;9.20;;;6.70;99.90;;;;;;5001583;28;20065;-62
2022/01/30 02:50:12;;;;;;;54.63;9.45;;;6.80;99.90;;;;;;5004686;28;20085;-62
2022/01/30 02:52:34;;;;;;;33.47;7.93;;;6.80;99.90;;;;;;5009362;28;20126;-61
2022/01/30 02:55:00;;;;;;;42.15;9.88;;;6.90;99.90;;;;;;5003473;28;20513;-62
2022/01/30 02:57:26;;;;;;;50.40;9.48;;;6.80;99.90;;;;;;5001443;28;20041;-62
2022/01/30 02:59:51;;;;;;;41.97;9.27;;;6.80;99.90;;;;;;5029947;28;20075;-62
2022/01/30 03:02:17;;;;;;;50.70;9.45;;;6.80;99.90;;;;;;5009221;28;20065;-62
2022/01/30 03:04:43;;;;;;;51.30;9.25;;;6.80;99.90;;;;;;5000878;28;20141;-62
2022/01/30 03:07:09;;;;;;;60.38;12.00;;;6.80;99.90;;;;;;5011956;28;20193;-62
2022/01/30 03:09:35;;;;;;;44.25;9.98;;;6.80;99.90;;;;;;4997289;28;20054;-62
2022/01/30 03:12:02;;;;;;;46.22;10.90;;;6.80;99.90;;;;;;5006952;28;20088;-62
2022/01/30 03:14:27;;;;;;;50.83;10.25;;;6.80;99.90;;;;;;5021864;28;20489;-62
2022/01/30 03:16:53;;;;;;;63.67;10.80;;;6.80;99.90;;;;;;5005392;28;20045;-62
2022/01/30 03:19:19;;;;;;;38.90;7.63;;;6.80;99.90;;;;;;5011672;28;20096;-62
2022/01/30 03:21:45;;;;;;;53.55;8.90;;;6.80;99.90;;;;;;5013433;28;20069;-62
2022/01/30 03:24:11;;;;;;;54.00;10.90;;;6.80;99.90;;;;;;5003840;28;20038;-62
2022/01/30 03:26:39;;;;;;;48.13;8.98;;;6.90;99.90;;;;;;5005811;28;20107;-62
2022/01/30 03:29:06;;;;;;;53.30;12.30;;;6.90;99.90;;;;;;5012096;28;20081;-62
2022/01/30 03:31:38;;;;;;;51.05;9.75;;;7.00;99.90;;;;;;5011576;28;20030;-62
2022/01/30 03:34:06;;;;;;;47.20;10.75;;;6.90;99.90;;;;;;5000039;28;20470;-64
2022/01/30 03:36:32;;;;;;;55.05;10.55;;;6.80;99.90;;;;;;5010753;28;20057;-62
2022/01/30 03:38:58;;;;;;;45.17;9.60;;;6.80;99.90;;;;;;5011516;28;20054;-62
2022/01/30 03:41:27;;;;;;;44.83;8.70;;;6.70;99.90;;;;;;4998246;28;20049;-62
2022/01/30 03:43:53;;;;;;;45.55;10.20;;;6.60;99.90;;;;;;5007426;28;20050;-62
2022/01/30 03:46:20;;;;;;;49.03;8.52;;;6.50;99.90;;;;;;4997338;28;20137;-62
2022/01/30 03:48:46;;;;;;;45.10;9.82;;;6.50;99.90;;;;;;5007897;28;20042;-62
2022/01/30 03:51:11;;;;;;;53.08;10.23;;;6.50;99.90;;;;;;5011701;28;20108;-62
2022/01/30 03:53:37;;;;;;;57.97;10.18;;;6.50;99.90;;;;;;5011816;28;20047;-62
2022/01/30 03:56:03;;;;;;;55.38;12.90;;;6.50;99.90;;;;;;5006696;28;20038;-62
2022/01/30 03:58:29;;;;;;;57.67;11.15;;;6.60;99.90;;;;;;5015434;28;20149;-62
2022/01/30 04:00:54;;;;;;;60.28;10.05;;;6.50;99.90;;;;;;5000147;28;20046;-62
2022/01/30 04:03:20;;;;;;;43.50;8.80;;;6.60;99.90;;;;;;5007713;28;20509;-62
2022/01/30 04:05:46;;;;;;;47.05;9.65;;;6.60;99.90;;;;;;5005024;28;20509;-62
2022/01/30 04:08:11;;;;;;;39.97;10.30;;;6.60;99.90;;;;;;5011562;28;20166;-62
2022/01/30 04:10:37;;;;;;;45.80;8.20;;;6.60;99.90;;;;;;5002575;28;20119;-62
2022/01/30 04:13:03;;;;;;;50.63;8.60;;;6.50;99.90;;;;;;5010346;28;20555;-62
2022/01/30 04:15:29;;;;;;;44.97;10.52;;;6.50;99.90;;;;;;5001153;28;20140;-62
2022/01/30 04:17:55;;;;;;;44.22;8.40;;;6.60;99.90;;;;;;5005420;28;20091;-62
2022/01/30 04:20:21;;;;;;;36.80;9.52;;;6.60;99.90;;;;;;5008607;28;20073;-63
2022/01/30 04:22:46;;;;;;;41.67;7.70;;;6.60;99.90;;;;;;4999021;28;20047;-63
2022/01/30 04:25:12;;;;;;;42.42;8.43;;;6.60;99.90;;;;;;4997548;28;20046;-63
2022/01/30 04:27:37;;;;;;;39.83;7.68;;;6.60;99.90;;;;;;5000463;28;20077;-63
2022/01/30 04:30:05;;;;;;;46.95;8.82;;;6.60;99.90;;;;;;4999199;28;20085;-63
2022/01/30 04:32:33;;;;;;;42.88;10.48;;;6.70;99.90;;;;;;5012321;28;20140;-62
2022/01/30 04:35:00;;;;;;;56.53;11.10;;;6.60;99.90;;;;;;5014424;28;20049;-62
2022/01/30 04:37:49;;;;;;;44.83;9.35;;;6.70;99.90;;;;;;5000612;28;20050;-63
2022/01/30 04:52:05;;;;;;;54.90;10.52;;;6.70;99.90;;;;;;5000261;28;20046;-62
2022/01/30 04:57:20;;;;;;;54.95;9.30;;;6.80;99.90;;;;;;5012261;28;20048;-62
2022/01/30 05:00:21;;;;;;;56.17;10.98;;;6.80;99.90;;;;;;5020419;28;20046;-62
2022/01/30 05:07:45;;;;;;;54.13;9.40;;;6.70;99.90;;;;;;5007718;28;20380;-62
2022/01/30 05:10:10;;;;;;;46.67;9.48;;;6.70;99.90;;;;;;5007983;28;20397;-62
2022/01/30 05:12:45;;;;;;;48.28;10.02;;;6.70;99.90;;;;;;4996166;28;20042;-62
2022/01/30 05:15:11;;;;;;;53.22;10.73;;;6.70;99.90;;;;;;5004974;28;20572;-62
2022/01/30 05:17:36;;;;;;;46.38;8.77;;;6.70;99.90;;;;;;5010002;28;20038;-62
2022/01/30 05:20:03;;;;;;;47.95;8.68;;;6.70;99.90;;;;;;4995763;28;20104;-62
2022/01/30 05:22:29;;;;;;;43.83;9.20;;;6.80;99.90;;;;;;5004525;28;20049;-62
2022/01/30 05:24:55;;;;;;;58.08;10.07;;;6.70;99.90;;;;;;4998885;28;20478;-62
2022/01/30 05:27:21;;;;;;;39.40;9.90;;;6.70;99.90;;;;;;4998398;28;20053;-62
2022/01/30 05:29:47;;;;;;;46.63;10.10;;;6.80;99.90;;;;;;5000365;28;20065;-62
2022/01/30 05:32:13;;;;;;;55.40;9.52;;;6.80;99.90;;;;;;5001757;28;20062;-62
2022/01/30 05:34:39;;;;;;;52.25;11.18;;;6.70;99.90;;;;;;5000520;28;20057;-62
2022/01/30 05:37:09;;;;;;;47.67;9.80;;;6.70;99.90;;;;;;5004833;28;20073;-62
2022/01/30 05:39:34;;;;;;;57.03;11.43;;;6.70;99.90;;;;;;5007914;28;20120;-62
2022/01/30 05:42:00;;;;;;;46.03;9.63;;;6.70;99.90;;;;;;4999549;28;20624;-62
2022/01/30 05:44:40;;;;;;;52.70;10.82;;;6.70;99.90;;;;;;5005709;28;20046;-62
2022/01/30 05:47:10;;;;;;;49.03;8.65;;;6.80;99.90;;;;;;5002941;28;20042;-62
2022/01/30 05:49:37;;;;;;;50.83;10.05;;;6.90;99.90;;;;;;5000177;28;20042;-62
2022/01/30 05:52:03;;;;;;;58.83;11.05;;;7.00;99.90;;;;;;5005749;28;20598;-62
2022/01/30 05:54:28;;;;;;;45.72;11.30;;;7.00;99.90;;;;;;5001850;28;20056;-62
2022/01/30 05:56:54;;;;;;;55.50;11.13;;;6.90;99.90;;;;;;5020013;28;20522;-62
2022/01/30 05:59:19;;;;;;;54.45;10.40;;;6.90;99.90;;;;;;5018112;28;20042;-62
2022/01/30 06:01:45;;;;;;;45.17;9.57;;;6.90;99.90;;;;;;5004789;28;20088;-62
2022/01/30 06:04:10;;;;;;;43.85;9.40;;;7.00;99.90;;;;;;5002253;28;20107;-62
2022/01/30 06:06:36;;;;;;;54.83;11.93;;;6.90;99.90;;;;;;5010246;28;20154;-62
2022/01/30 06:09:18;;;;;;;55.72;11.48;;;6.90;99.90;;;;;;5010636;28;20042;-62
2022/01/30 06:11:47;;;;;;;45.70;9.23;;;6.90;99.90;;;;;;5004195;28;20529;-62
2022/01/30 06:14:13;;;;;;;60.17;9.90;;;6.90;99.90;;;;;;5004276;28;20398;-62
2022/01/30 06:16:38;;;;;;;57.38;12.10;;;6.90;99.90;;;;;;5014876;28;20044;-62
2022/01/30 06:19:04;;;;;;;45.38;10.00;;;6.90;99.90;;;;;;5004881;28;20490;-62
2022/01/30 06:21:29;;;;;;;46.65;10.73;;;6.90;99.90;;;;;;5013475;28;20146;-62
2022/01/30 06:23:55;;;;;;;45.28;9.20;;;6.90;99.90;;;;;;5009512;28;20046;-62
2022/01/30 06:26:21;;;;;;;54.10;9.55;;;6.90;99.90;;;;;;5007249;28;20049;-62
2022/01/30 06:28:46;;;;;;;50.97;10.43;;;6.90;99.90;;;;;;5000291;28;20156;-62
2022/01/30 06:31:12;;;;;;;61.10;10.93;;;7.00;99.90;;;;;;5012129;28;20057;-62
2022/01/30 06:33:38;;;;;;;54.17;9.73;;;6.90;99.90;;;;;;5007488;28;20054;-62
2022/01/30 06:36:04;;;;;;;48.70;9.75;;;7.00;99.90;;;;;;5011844;28;20044;-62
2022/01/30 06:38:29;;;;;;;57.53;12.45;;;7.00;99.90;;;;;;4998290;28;20041;-62
2022/01/30 06:40:55;;;;;;;57.78;11.38;;;7.00;99.90;;;;;;5007021;28;20405;-62
2022/01/30 06:43:20;;;;;;;49.20;10.32;;;7.10;99.90;;;;;;5002006;28;20038;-62
2022/01/30 06:45:47;;;;;;;52.95;12.02;;;7.10;99.90;;;;;;4997709;28;20382;-62
2022/01/30 06:48:19;;;;;;;57.47;12.02;;;7.10;99.90;;;;;;5009683;28;20141;-62
2022/01/30 06:50:45;;;;;;;57.50;9.93;;;7.10;99.90;;;;;;5009130;28;20038;-62
2022/01/30 06:53:11;;;;;;;51.50;11.93;;;7.00;99.90;;;;;;5001616;28;20046;-62
2022/01/30 06:55:42;;;;;;;44.33;11.77;;;7.10;99.90;;;;;;5013777;28;20168;-62
2022/01/30 06:58:15;;;;;;;55.35;10.82;;;7.10;99.90;;;;;;5008121;28;20045;-62
2022/01/30 07:00:41;;;;;;;60.22;10.68;;;7.20;99.90;;;;;;5001965;28;20046;-62
2022/01/30 07:03:06;;;;;;;49.35;10.48;;;7.10;99.90;;;;;;5006053;28;20045;-64
2022/01/30 07:05:32;;;;;;;61.95;11.00;;;7.10;99.90;;;;;;5010270;28;20054;-62
2022/01/30 07:07:57;;;;;;;52.20;9.98;;;7.20;99.90;;;;;;5020313;28;20053;-62
2022/01/30 07:10:23;;;;;;;54.28;10.52;;;7.10;99.90;;;;;;5005750;28;20129;-62
2022/01/30 07:12:48;;;;;;;55.45;10.80;;;7.20;99.90;;;;;;5012883;28;20050;-62
2022/01/30 07:15:14;;;;;;;57.85;11.40;;;7.10;99.90;;;;;;5013517;28;20046;-62
2022/01/30 07:17:40;;;;;;;49.40;11.45;;;7.10;99.90;;;;;;4997826;28;20046;-62
2022/01/30 07:20:07;;;;;;;45.92;10.25;;;7.20;99.90;;;;;;5012047;28;20049;-62
2022/01/30 07:22:32;;;;;;;42.88;10.02;;;7.10;99.90;;;;;;5011722;28;20080;-61
2022/01/30 07:24:58;;;;;;;44.85;10.63;;;7.10;99.90;;;;;;5015545;28;20490;-62
2022/01/30 07:27:24;;;;;;;57.92;13.10;;;7.00;99.90;;;;;;5013263;28;20398;-61
2022/01/30 07:29:50;;;;;;;47.92;11.90;;;7.00;99.90;;;;;;5023044;28;20050;-62
2022/01/30 07:32:15;;;;;;;45.13;11.45;;;7.00;99.90;;;;;;4998168;28;20047;-62
2022/01/30 07:34:41;;;;;;;42.08;9.15;;;7.00;99.90;;;;;;5000829;28;20072;-61
2022/01/30 07:37:09;;;;;;;60.72;11.25;;;7.00;99.90;;;;;;5010672;28;20094;-62
2022/01/30 07:39:36;;;;;;;49.65;9.48;;;7.10;99.90;;;;;;5002759;28;20061;-62
2022/01/30 07:42:03;;;;;;;51.67;10.43;;;7.10;99.90;;;;;;5008908;28;20051;-61
2022/01/30 07:44:28;;;;;;;52.78;11.68;;;7.10;99.90;;;;;;5006039;28;20049;-61
2022/01/30 07:46:54;;;;;;;56.90;11.50;;;7.10;99.90;;;;;;5028712;28;20052;-61
2022/01/30 07:49:19;;;;;;;49.88;11.57;;;7.20;99.90;;;;;;5032468;28;20053;-61
2022/01/30 07:51:45;;;;;;;63.65;12.00;;;7.10;99.90;;;;;;5009949;28;20046;-61
2022/01/30 07:54:10;;;;;;;49.75;9.98;;;7.10;99.90;;;;;;4996833;28;20486;-61
2022/01/30 07:56:36;;;;;;;51.75;12.57;;;7.00;99.90;;;;;;5007151;28;20064;-61
2022/01/30 07:59:02;;;;;;;70.10;11.05;;;7.10;99.90;;;;;;5003525;28;20051;-61
2022/01/30 08:01:27;;;;;;;62.55;10.98;;;7.20;99.90;;;;;;5003484;28;20049;-61
2022/01/30 08:03:53;;;;;;;45.38;9.02;;;7.10;99.90;;;;;;5001350;28;20053;-61
2022/01/30 08:06:18;;;;;;;42.95;9.85;;;7.20;99.90;;;;;;5012376;28;20064;-61
2022/01/30 08:08:44;;;;;;;45.03;9.70;;;7.10;99.90;;;;;;5011718;28;20058;-61
2022/01/30 08:11:10;;;;;;;40.00;9.07;;;7.10;99.90;;;;;;5003931;28;20128;-61
2022/01/30 08:13:35;;;;;;;49.75;10.65;;;7.10;99.90;;;;;;5006798;28;20081;-61
2022/01/30 08:16:01;;;;;;;32.30;8.18;;;7.00;99.90;;;;;;5001836;28;20489;-62
2022/01/30 08:18:27;;;;;;;47.17;10.77;;;7.10;99.90;;;;;;4991203;28;20041;-61
2022/01/30 08:20:54;;;;;;;59.00;11.88;;;7.00;99.90;;;;;;5001038;28;20116;-61
2022/01/30 08:23:20;;;;;;;39.00;10.45;;;6.90;99.90;;;;;;5008185;28;20042;-61
2022/01/30 08:25:46;;;;;;;39.35;8.77;;;7.10;99.90;;;;;;5010701;28;20049;-61
2022/01/30 08:28:12;;;;;;;39.17;9.32;;;7.00;99.90;;;;;;5001498;28;20121;-62
2022/01/30 08:30:37;;;;;;;61.42;11.00;;;7.00;99.90;;;;;;5008760;28;20559;-61
2022/01/30 08:33:03;;;;;;;52.25;10.27;;;7.00;99.90;;;;;;5007103;28;20058;-61
2022/01/30 08:35:30;;;;;;;54.40;10.68;;;7.10;99.90;;;;;;5006581;28;20093;-61
2022/01/30 08:37:56;;;;;;;48.75;9.75;;;7.00;99.90;;;;;;5009629;28;20076;-61
2022/01/30 08:40:22;;;;;;;53.03;9.88;;;7.00;99.90;;;;;;5010303;28;20099;-61
2022/01/30 08:42:49;;;;;;;52.10;10.23;;;7.10;99.90;;;;;;5007759;28;20084;-61
2022/01/30 08:45:16;;;;;;;63.08;14.40;;;7.10;99.90;;;;;;5007572;28;20037;-61
2022/01/30 08:47:43;;;;;;;45.35;10.65;;;7.10;99.90;;;;;;5009348;28;20050;-61
2022/01/30 08:50:11;;;;;;;50.47;12.07;;;7.10;99.90;;;;;;4989731;28;20085;-61
2022/01/30 08:52:36;;;;;;;35.45;9.25;;;7.10;99.90;;;;;;4991854;28;20058;-61
2022/01/30 08:55:05;;;;;;;40.60;9.70;;;7.10;99.90;;;;;;5005945;28;20398;-62
2022/01/30 08:57:30;;;;;;;47.08;10.05;;;7.10;99.90;;;;;;5007478;28;20084;-61
2022/01/30 08:59:58;;;;;;;62.25;10.02;;;7.10;99.90;;;;;;5003308;28;20447;-61
2022/01/30 09:02:24;;;;;;;51.58;11.32;;;7.20;99.90;;;;;;4996464;28;20049;-61
2022/01/30 09:04:49;;;;;;;56.53;12.30;;;7.10;99.90;;;;;;4997770;28;20050;-61
2022/01/30 09:07:16;;;;;;;46.53;11.32;;;7.30;99.90;;;;;;5001741;28;20089;-61
2022/01/30 09:09:41;;;;;;;58.75;11.10;;;7.10;99.90;;;;;;5020998;28;20413;-61
2022/01/30 09:12:07;;;;;;;56.47;13.27;;;7.20;99.90;;;;;;5020055;28;20053;-62
2022/01/30 09:14:33;;;;;;;44.38;11.55;;;7.20;99.90;;;;;;4992742;28;20486;-61
2022/01/30 09:16:58;;;;;;;40.83;9.93;;;7.30;99.90;;;;;;5002580;28;20712;-61
2022/01/30 09:19:24;;;;;;;52.00;12.52;;;7.30;99.90;;;;;;5003782;28;20054;-62
2022/01/30 09:21:51;;;;;;;54.00;11.32;;;7.40;99.90;;;;;;5008609;28;20125;-61
2022/01/30 09:24:17;;;;;;;56.08;12.80;;;7.50;99.90;;;;;;5006195;28;20157;-61
2022/01/30 09:26:42;;;;;;;51.65;11.30;;;7.70;99.90;;;;;;5004185;28;20058;-61
2022/01/30 09:29:08;;;;;;;57.63;12.15;;;7.70;99.90;;;;;;5009908;28;20604;-61
2022/01/30 09:31:33;;;;;;;60.90;13.25;;;7.60;99.90;;;;;;5002936;28;20097;-61
2022/01/30 09:33:59;;;;;;;53.90;11.77;;;7.60;99.90;;;;;;5008571;28;20046;-61
2022/01/30 09:36:24;;;;;;;50.47;10.93;;;7.50;99.90;;;;;;5004076;28;20039;-61
2022/01/30 09:38:50;;;;;;;48.92;11.35;;;7.50;99.90;;;;;;4991184;28;20050;-61
2022/01/30 09:41:18;;;;;;;45.00;10.80;;;7.50;99.90;;;;;;5009246;28;20120;-61
2022/01/30 09:43:44;;;;;;;48.60;9.82;;;7.50;99.90;;;;;;5002372;28;20054;-61
2022/01/30 09:46:10;;;;;;;49.60;10.75;;;7.50;99.90;;;;;;5000775;28;20077;-61
2022/01/30 09:48:37;;;;;;;43.53;8.82;;;7.60;99.90;;;;;;5004489;28;20070;-61
2022/01/30 09:51:06;;;;;;;41.55;10.15;;;7.60;99.90;;;;;;4996758;28;20129;-61
2022/01/30 09:53:32;;;;;;;47.80;9.82;;;7.70;99.90;;;;;;5007701;28;20144;-62
2022/01/30 09:55:58;;;;;;;57.40;10.77;;;7.70;99.90;;;;;;5004077;28;20054;-61
2022/01/30 09:58:24;;;;;;;43.45;8.98;;;7.70;99.90;;;;;;4993562;28;20124;-61
2022/01/30 10:00:49;;;;;;;33.17;8.77;;;7.90;99.90;;;;;;5004959;28;20053;-61
2022/01/30 10:03:22;;;;;;;51.88;10.05;;;7.90;99.90;;;;;;5010655;28;20046;-61
2022/01/30 10:06:13;;;;;;;58.65;8.30;;;7.90;99.90;;;;;;4995180;28;20061;-61
2022/01/30 10:08:44;;;;;;;55.70;10.00;;;7.90;99.90;;;;;;5000827;28;20042;-61
2022/01/30 10:11:29;;;;;;;56.97;10.48;;;8.00;99.90;;;;;;5002675;28;20038;-61
2022/01/30 10:14:11;;;;;;;49.17;9.98;;;8.00;99.90;;;;;;5006322;28;20050;-61
2022/01/30 10:16:41;;;;;;;53.35;9.43;;;8.10;99.90;;;;;;4995679;28;20034;-61
2022/01/30 10:19:09;;;;;;;35.35;8.82;;;8.10;99.90;;;;;;4996383;28;20054;-62
2022/01/30 10:21:35;;;;;;;53.15;11.70;;;8.30;99.90;;;;;;4993987;28;20046;-61
2022/01/30 10:24:17;;;;;;;39.10;9.25;;;8.40;99.90;;;;;;5014067;28;20417;-62
2022/01/30 10:26:43;;;;;;;40.70;8.25;;;8.50;99.90;;;;;;4999607;28;20038;-61
2022/01/30 10:29:30;;;;;;;47.92;10.05;;;8.60;99.90;;;;;;5000330;28;20528;-61
2022/01/30 10:32:07;;;;;;;49.78;11.18;;;8.60;99.90;;;;;;4999113;28;20049;-62
2022/01/30 10:34:34;;;;;;;44.95;9.02;;;8.80;99.90;;;;;;5022308;28;20497;-62
2022/01/30 10:37:22;;;;;;;50.42;11.80;;;8.70;99.90;;;;;;5000743;28;20042;-61
2022/01/30 10:39:57;;;;;;;42.20;10.05;;;9.00;99.90;;;;;;5006399;28;20053;-62
2022/01/30 10:42:45;;;;;;;44.08;8.93;;;8.90;99.90;;;;;;5017843;28;20074;-62
2022/01/30 10:45:31;;;;;;;47.95;12.63;;;8.90;99.90;;;;;;5011168;28;20077;-62
2022/01/30 10:48:18;;;;;;;46.53;12.07;;;8.80;99.90;;;;;;4994945;28;20042;-61
2022/01/30 10:50:48;;;;;;;41.00;7.50;;;8.80;99.90;;;;;;5004775;28;20050;-61
2022/01/30 10:53:22;;;;;;;46.80;10.02;;;8.80;99.90;;;;;;5013611;28;20057;-61
2022/01/30 10:55:49;;;;;;;50.58;9.48;;;8.80;99.90;;;;;;5009557;28;20042;-61
2022/01/30 10:58:19;;;;;;;42.22;11.13;;;8.90;99.90;;;;;;4993225;28;20451;-62
2022/01/30 11:00:47;;;;;;;44.72;11.43;;;9.00;99.90;;;;;;5011508;28;20042;-61
2022/01/30 11:03:41;;;;;;;43.47;10.25;;;9.00;99.90;;;;;;5012394;28;20046;-61
2022/01/30 11:06:10;;;;;;;52.20;11.77;;;9.00;99.90;;;;;;5000422;28;20053;-61
2022/01/30 11:08:40;;;;;;;46.80;11.00;;;9.10;99.90;;;;;;5006930;28;20177;-61
2022/01/30 11:11:17;;;;;;;61.67;15.13;;;9.10;99.90;;;;;;5012740;28;20042;-62
2022/01/30 11:14:35;;;;;;;51.38;11.20;;;9.20;99.90;;;;;;4997845;28;20053;-61
2022/01/30 11:19:19;;;;;;;50.10;10.65;;;9.40;99.90;;;;;;5006618;28;20582;-61
2022/01/30 11:21:51;;;;;;;46.85;9.38;;;9.20;99.90;;;;;;5007506;28;20683;-61
2022/01/30 11:24:19;;;;;;;37.15;9.10;;;9.10;99.90;;;;;;5004850;28;20159;-62
2022/01/30 11:26:46;;;;;;;58.90;10.82;;;9.20;99.90;;;;;;4994441;28;20046;-61
2022/01/30 11:29:14;;;;;;;39.08;9.30;;;9.30;99.90;;;;;;5003846;28;20105;-61
2022/01/30 11:31:40;;;;;;;49.45;10.85;;;9.20;99.90;;;;;;5002875;28;20046;-61
2022/01/30 11:34:06;;;;;;;44.58;10.55;;;9.20;99.90;;;;;;4993510;28;20097;-62
2022/01/30 11:36:34;;;;;;;56.17;11.85;;;9.30;99.90;;;;;;5012454;28;20410;-62
2022/01/30 11:39:00;;;;;;;55.58;10.63;;;9.40;99.90;;;;;;5011768;28;20177;-62
2022/01/30 11:41:26;;;;;;;44.38;10.85;;;9.50;99.90;;;;;;5003384;28;20046;-62
2022/01/30 11:44:17;;;;;;;50.75;10.30;;;9.60;99.90;;;;;;4993401;28;20509;-62
2022/01/30 11:46:44;;;;;;;46.60;10.27;;;9.80;99.90;;;;;;4991696;28;20449;-62
2022/01/30 11:49:14;;;;;;;40.40;10.57;;;9.80;99.90;;;;;;5010192;28;20045;-62
2022/01/30 11:51:54;;;;;;;39.10;8.68;;;9.60;99.90;;;;;;4997508;28;20054;-62
2022/01/30 11:54:40;;;;;;;49.25;10.32;;;9.70;99.90;;;;;;4992614;28;20058;-62
2022/01/30 11:57:18;;;;;;;48.58;11.00;;;9.90;99.90;;;;;;5010230;28;20084;-62
2022/01/30 11:59:45;;;;;;;51.15;11.27;;;10.10;99.90;;;;;;5006600;28;20564;-62
2022/01/30 12:02:23;;;;;;;41.22;10.60;;;10.00;99.90;;;;;;4996462;28;20050;-62
2022/01/30 12:04:57;;;;;;;31.05;8.68;;;10.10;99.90;;;;;;5006466;28;20133;-62
2022/01/30 12:07:45;;;;;;;48.90;9.27;;;10.30;99.90;;;;;;5009550;28;20585;-62
2022/01/30 12:10:20;;;;;;;41.30;8.73;;;10.60;99.90;;;;;;5003994;28;20052;-62
2022/01/30 12:13:06;;;;;;;44.92;8.05;;;10.60;99.90;;;;;;4997279;28;20046;-62
2022/01/30 12:15:41;;;;;;;34.83;7.47;;;10.10;99.90;;;;;;4993870;28;20046;-62
2022/01/30 12:18:37;;;;;;;44.88;8.98;;;10.20;99.90;;;;;;5000940;28;20389;-62
2022/01/30 12:21:09;;;;;;;46.13;11.52;;;10.00;99.90;;;;;;4991499;28;20406;-62
2022/01/30 12:23:36;;;;;;;37.08;9.32;;;9.80;99.90;;;;;;4991974;28;20486;-62
2022/01/30 12:26:05;;;;;;;42.30;9.18;;;9.90;99.90;;;;;;5000150;28;20054;-62
2022/01/30 12:28:51;;;;;;;46.38;9.18;;;9.80;99.90;;;;;;5010347;28;20050;-62
2022/01/30 12:31:34;;;;;;;43.92;9.35;;;9.70;99.90;;;;;;4991691;28;20056;-62
2022/01/30 12:34:05;;;;;;;47.83;10.80;;;9.60;99.90;;;;;;4991501;28;20049;-62
2022/01/30 12:36:35;;;;;;;40.92;8.35;;;9.40;99.90;;;;;;5002526;28;20042;-62
2022/01/30 12:39:07;;;;;;;43.00;9.05;;;9.40;99.90;;;;;;5004797;28;20045;-62
2022/01/30 12:41:35;;;;;;;43.92;9.23;;;9.60;99.90;;;;;;5002816;28;20038;-62
2022/01/30 12:44:04;;;;;;;39.80;8.73;;;9.40;99.90;;;;;;4998577;28;20073;-62
2022/01/30 12:46:36;;;;;;;45.28;9.43;;;9.40;99.90;;;;;;4995988;28;20078;-62
2022/01/30 12:49:04;;;;;;;49.47;11.00;;;9.60;99.90;;;;;;4995815;28;20080;-62
2022/01/30 12:51:30;;;;;;;56.03;10.15;;;9.90;99.90;;;;;;5010080;28;20452;-62
2022/01/30 12:53:57;;;;;;;49.25;8.52;;;10.10;99.90;;;;;;5001213;28;20045;-62
2022/01/30 12:56:23;;;;;;;46.83;10.43;;;10.30;99.90;;;;;;4992784;28;20048;-62
2022/01/30 12:58:53;;;;;;;46.85;9.15;;;10.30;99.90;;;;;;4991020;28;20602;-62
2022/01/30 13:01:24;;;;;;;43.83;9.00;;;10.60;99.90;;;;;;5004859;28;20046;-62
2022/01/30 13:04:04;;;;;;;43.75;10.38;;;10.80;99.90;;;;;;4990474;28;20053;-62
2022/01/30 13:06:31;;;;;;;42.47;9.82;;;11.30;99.90;;;;;;5001536;28;20046;-62
2022/01/30 13:08:57;;;;;;;32.90;7.80;;;11.50;99.90;;;;;;5000208;28;20201;-62
2022/01/30 13:11:24;;;;;;;38.05;7.82;;;11.40;99.90;;;;;;5010722;28;20155;-62
2022/01/30 13:13:55;;;;;;;37.22;8.57;;;11.60;99.90;;;;;;5001729;28;20108;-62
2022/01/30 13:16:26;;;;;;;52.50;10.43;;;11.70;99.90;;;;;;5000187;28;20064;-62
2022/01/30 13:18:52;;;;;;;48.60;8.43;;;11.70;99.90;;;;;;5010633;28;20554;-62
2022/01/30 13:21:22;;;;;;;35.25;8.23;;;11.90;99.90;;;;;;5011305;28;20205;-62
2022/01/30 13:23:48;;;;;;;37.95;8.70;;;12.10;99.90;;;;;;5001052;28;20116;-61
2022/01/30 13:26:37;;;;;;;27.80;7.65;;;11.80;99.90;;;;;;4997496;28;20433;-61
2022/01/30 13:29:06;;;;;;;38.67;7.32;;;11.80;99.90;;;;;;5008627;28;20549;-61
2022/01/30 13:31:32;;;;;;;32.22;7.25;;;11.60;99.90;;;;;;5004930;28;20046;-61
2022/01/30 13:34:25;;;;;;;29.05;6.55;;;11.60;99.90;;;;;;4995118;28;20058;-61